Time;durP1;ratioP1;P1;durP2;ratioP2;P2;SDS_P1;SDS_P2;PMS_P1;PMS_P2;Temp;Humidity;BMP_temperature;BMP_pressure;BME280_temperature;BME280_humidity;BME280_pressure;Samples;Min_cycle;Max_cycle;Signal;HPM_P1;HPM_P2
2024/04/21 00:00:17;;;;;;;1.00;1.00;;;4.20;96.30;;;;;;6896141;25;20480;-59
2024/04/21 00:03:29;;;;;;;1.33;1.23;;;4.20;96.40;;;;;;6895907;25;20572;-59
2024/04/21 00:06:33;;;;;;;1.90;1.30;;;4.20;96.40;;;;;;6896199;25;20889;-59
2024/04/21 00:09:39;;;;;;;1.60;1.47;;;4.20;96.40;;;;;;6894590;25;20819;-61
2024/04/21 00:12:44;;;;;;;3.43;1.47;;;4.10;96.50;;;;;;6895202;25;20468;-58
2024/04/21 00:15:52;;;;;;;1.23;1.20;;;4.00;96.90;;;;;;6894964;25;20531;-58
2024/04/21 00:19:12;;;;;;;1.40;1.20;;;4.00;97.10;;;;;;6895458;25;20513;-60
2024/04/21 00:22:24;;;;;;;1.57;1.30;;;3.90;97.70;;;;;;6894390;25;20477;-62
2024/04/21 00:25:34;;;;;;;1.43;1.33;;;3.80;98.30;;;;;;6894069;25;20788;-60
2024/04/21 00:28:47;;;;;;;1.50;1.40;;;3.80;98.60;;;;;;6894976;25;20529;-59
2024/04/21 00:31:53;;;;;;;1.70;1.60;;;3.70;98.50;;;;;;6889334;25;20532;-60
2024/04/21 00:35:01;;;;;;;2.63;1.50;;;3.70;98.60;;;;;;6849283;25;20588;-62
2024/04/21 00:38:10;;;;;;;3.13;1.40;;;3.70;98.60;;;;;;6848513;25;20834;-62
2024/04/21 00:41:27;;;;;;;1.63;1.40;;;3.60;98.60;;;;;;6870982;25;20473;-62
2024/04/21 00:44:33;;;;;;;1.53;1.43;;;3.60;98.80;;;;;;6893536;25;21140;-61
2024/04/21 00:47:37;;;;;;;1.77;1.63;;;3.60;99.20;;;;;;6892459;25;20563;-59
2024/04/21 00:50:55;;;;;;;2.67;2.17;;;3.50;99.30;;;;;;6893932;25;20579;-60
2024/04/21 00:54:02;;;;;;;5.13;2.10;;;3.50;99.70;;;;;;6894096;25;20457;-60
2024/04/21 00:57:08;;;;;;;2.93;2.03;;;3.50;99.90;;;;;;6895074;25;20473;-57
2024/04/21 01:00:17;;;;;;;3.20;2.20;;;3.40;99.90;;;;;;6858827;25;20467;-58
2024/04/21 01:03:22;;;;;;;1.73;1.63;;;3.40;99.90;;;;;;6874375;25;21421;-58
2024/04/21 01:06:35;;;;;;;2.70;1.70;;;3.40;99.90;;;;;;6853478;25;20590;-58
2024/04/21 01:09:40;;;;;;;2.90;2.20;;;3.30;99.90;;;;;;6858662;25;20857;-57
2024/04/21 01:12:47;;;;;;;2.00;1.90;;;3.30;99.90;;;;;;6872500;25;20464;-58
2024/04/21 01:15:52;;;;;;;4.23;2.87;;;3.30;99.90;;;;;;6893094;25;21026;-57
2024/04/21 01:18:59;;;;;;;1.60;1.50;;;3.20;99.90;;;;;;6871091;25;20852;-58
2024/04/21 01:22:11;;;;;;;1.90;1.70;;;3.30;99.90;;;;;;6892341;25;20563;-58
2024/04/21 01:25:19;;;;;;;2.00;1.80;;;3.30;99.90;;;;;;6881150;25;20454;-58
2024/04/21 01:28:33;;;;;;;2.60;2.13;;;3.30;99.90;;;;;;6872974;25;20566;-58
2024/04/21 01:31:38;;;;;;;4.00;2.10;;;3.30;99.90;;;;;;6856484;25;20553;-58
2024/04/21 01:34:47;;;;;;;4.60;2.70;;;3.30;99.90;;;;;;6871880;25;20474;-57
2024/04/21 01:37:52;;;;;;;2.47;2.27;;;3.20;99.90;;;;;;6892726;25;20564;-58
2024/04/21 01:41:03;;;;;;;2.47;2.27;;;3.20;99.90;;;;;;6873550;25;20942;-57
2024/04/21 01:44:07;;;;;;;2.30;2.10;;;3.20;99.90;;;;;;6868893;25;20586;-57
2024/04/21 01:47:13;;;;;;;2.00;1.90;;;3.20;99.90;;;;;;6865974;25;20525;-57
2024/04/21 01:50:18;;;;;;;1.47;1.37;;;3.10;99.90;;;;;;6872138;25;20860;-58
2024/04/21 01:53:25;;;;;;;3.00;1.50;;;3.10;99.90;;;;;;6864020;25;20525;-57
2024/04/21 01:56:32;;;;;;;1.87;1.70;;;3.10;99.90;;;;;;6891647;25;20537;-58
2024/04/21 01:59:46;;;;;;;2.40;1.30;;;3.00;99.90;;;;;;6892713;25;21419;-58
2024/04/21 02:02:50;;;;;;;1.33;1.33;;;3.00;99.90;;;;;;6863541;25;20893;-57
2024/04/21 02:05:56;;;;;;;1.23;1.23;;;3.00;99.90;;;;;;6894511;25;20602;-61
2024/04/21 02:08:59;;;;;;;1.20;1.10;;;3.00;99.90;;;;;;6891969;25;21333;-61
2024/04/21 02:12:12;;;;;;;1.70;1.60;;;3.00;99.90;;;;;;6893338;25;20509;-62
2024/04/21 02:15:19;;;;;;;1.70;1.60;;;2.90;99.90;;;;;;6893055;25;20583;-59
2024/04/21 02:18:27;;;;;;;1.00;1.00;;;2.90;99.90;;;;;;6880952;25;20743;-60
2024/04/21 02:21:32;;;;;;;1.70;1.37;;;2.90;99.90;;;;;;6819855;25;20476;-58
2024/04/21 02:24:39;;;;;;;1.23;1.10;;;2.80;99.90;;;;;;6798918;26;20484;-59
2024/04/21 02:27:47;;;;;;;1.77;1.63;;;2.80;99.90;;;;;;6796085;26;20555;-58
2024/04/21 02:30:49;;;;;;;1.20;1.20;;;2.80;99.90;;;;;;6752250;26;20562;-58
2024/04/21 02:33:54;;;;;;;4.10;1.50;;;2.80;99.90;;;;;;6752200;26;20591;-59
2024/04/21 02:36:57;;;;;;;1.53;1.43;;;2.70;99.90;;;;;;6753548;26;20474;-58
2024/04/21 02:40:02;;;;;;;1.50;1.40;;;2.70;99.90;;;;;;6757236;26;20469;-58
2024/04/21 02:43:10;;;;;;;1.27;1.27;;;2.70;99.90;;;;;;6815201;26;20479;-58
2024/04/21 02:46:16;;;;;;;3.77;2.10;;;2.60;99.90;;;;;;6799968;26;20517;-58
2024/04/21 02:49:19;;;;;;;2.90;2.03;;;2.50;99.90;;;;;;6844329;26;20951;-60
2024/04/21 02:52:24;;;;;;;2.63;2.43;;;2.40;99.90;;;;;;6831110;25;20456;-59
2024/04/21 02:55:26;;;;;;;1.93;1.83;;;2.40;99.90;;;;;;6806289;26;20464;-58
2024/04/21 02:58:34;;;;;;;1.80;1.70;;;2.40;99.90;;;;;;6827392;26;20474;-58
2024/04/21 03:01:39;;;;;;;1.90;1.80;;;2.30;99.90;;;;;;6850100;26;20994;-59
2024/04/21 03:04:41;;;;;;;1.67;1.57;;;2.30;99.90;;;;;;6849063;26;20502;-58
2024/04/21 03:07:46;;;;;;;1.40;1.40;;;2.30;99.90;;;;;;6849965;26;20474;-59
2024/04/21 03:10:49;;;;;;;1.50;1.40;;;2.20;99.90;;;;;;6822160;26;20480;-58
2024/04/21 03:13:56;;;;;;;1.73;1.63;;;2.20;99.90;;;;;;6804139;26;20467;-58
2024/04/21 03:16:59;;;;;;;4.20;1.90;;;2.10;99.90;;;;;;6803994;26;20520;-59
2024/04/21 03:20:04;;;;;;;2.20;1.80;;;2.10;99.90;;;;;;6804210;26;20476;-59
2024/04/21 03:23:07;;;;;;;1.70;1.60;;;2.10;99.90;;;;;;6803825;26;20444;-58
2024/04/21 03:26:12;;;;;;;1.90;1.80;;;2.00;99.90;;;;;;6803869;26;20463;-58
2024/04/21 03:29:17;;;;;;;2.77;2.00;;;2.00;99.90;;;;;;6803101;26;20479;-58
2024/04/21 03:32:22;;;;;;;2.03;1.83;;;2.00;99.90;;;;;;6803618;26;20555;-58
2024/04/21 03:35:27;;;;;;;2.20;2.10;;;1.90;99.90;;;;;;6803454;26;20934;-58
2024/04/21 03:38:33;;;;;;;2.33;2.23;;;1.90;99.90;;;;;;6803057;26;20524;-58
2024/04/21 03:41:38;;;;;;;2.03;1.93;;;1.80;99.90;;;;;;6802992;26;20982;-59
2024/04/21 03:44:45;;;;;;;2.03;1.93;;;1.90;99.90;;;;;;6802814;26;20468;-59
2024/04/21 03:47:48;;;;;;;3.60;3.30;;;1.90;99.90;;;;;;6803367;26;21028;-58
2024/04/21 03:50:53;;;;;;;2.93;2.63;;;1.80;99.90;;;;;;6803346;26;20476;-59
2024/04/21 03:53:55;;;;;;;2.50;2.30;;;1.80;99.90;;;;;;6802852;26;20525;-58
2024/04/21 03:57:04;;;;;;;2.53;2.43;;;1.80;99.90;;;;;;6802812;26;20468;-59
2024/04/21 04:00:12;;;;;;;3.10;2.90;;;1.80;99.90;;;;;;6803346;26;20510;-59
2024/04/21 04:03:17;;;;;;;2.83;2.63;;;1.90;99.90;;;;;;6803423;26;20516;-58
2024/04/21 04:06:21;;;;;;;2.83;2.63;;;1.90;99.90;;;;;;6802691;26;20483;-60
2024/04/21 04:09:25;;;;;;;4.67;2.40;;;1.90;99.90;;;;;;6804012;26;20472;-59
2024/04/21 04:12:28;;;;;;;3.87;2.40;;;1.90;99.90;;;;;;6804992;26;20768;-59
2024/04/21 04:15:35;;;;;;;3.33;3.07;;;2.00;99.90;;;;;;6831240;26;20580;-58
2024/04/21 04:18:38;;;;;;;3.40;3.10;;;2.30;99.90;;;;;;6848949;26;20527;-58
2024/04/21 04:21:43;;;;;;;3.83;3.23;;;3.00;99.90;;;;;;6849678;25;20454;-59
2024/04/21 04:24:45;;;;;;;3.03;2.83;;;3.80;99.90;;;;;;6848771;26;20569;-59
2024/04/21 04:27:50;;;;;;;4.30;3.03;;;4.60;99.90;;;;;;6818753;25;20475;-58
2024/04/21 04:30:58;;;;;;;4.40;2.63;;;5.20;99.90;;;;;;6801996;26;20504;-59
2024/04/21 04:34:03;;;;;;;2.90;2.47;;;5.50;99.40;;;;;;6802286;26;20464;-58
2024/04/21 04:37:05;;;;;;;7.43;2.10;;;6.30;97.40;;;;;;6775899;26;21404;-59
2024/04/21 04:40:11;;;;;;;3.20;2.90;;;6.70;94.20;;;;;;6792028;26;20536;-59
2024/04/21 04:43:16;;;;;;;2.67;2.33;;;7.70;92.60;;;;;;6802288;26;20455;-58
2024/04/21 04:46:21;;;;;;;2.93;2.30;;;8.50;89.20;;;;;;6802941;26;20857;-58
2024/04/21 04:49:27;;;;;;;4.30;2.60;;;9.60;83.70;;;;;;6802205;26;20519;-59
2024/04/21 04:52:29;;;;;;;4.60;2.73;;;10.80;75.30;;;;;;6802446;26;20499;-60
2024/04/21 04:55:34;;;;;;;2.63;2.43;;;11.90;68.40;;;;;;6802396;26;20523;-58
2024/04/21 04:58:37;;;;;;;2.63;2.40;;;12.90;61.30;;;;;;6802180;26;20468;-59
2024/04/21 05:01:44;;;;;;;3.40;2.20;;;14.00;57.20;;;;;;6802023;26;20523;-59
2024/04/21 05:04:47;;;;;;;2.60;2.40;;;14.90;52.70;;;;;;6801858;26;20476;-59
2024/04/21 05:07:52;;;;;;;2.73;2.50;;;15.90;48.90;;;;;;6821542;26;20527;-60
2024/04/21 05:10:54;;;;;;;2.07;1.97;;;16.70;46.20;;;;;;6843533;25;20856;-59
2024/04/21 05:13:59;;;;;;;4.30;3.00;;;17.60;42.80;;;;;;6801830;26;20444;-59
2024/04/21 05:17:04;;;;;;;3.77;3.10;;;18.30;40.20;;;;;;6801687;26;20505;-60
2024/04/21 05:20:10;;;;;;;3.33;3.03;;;18.90;38.60;;;;;;6802316;26;20265;-60
2024/04/21 05:23:12;;;;;;;2.27;1.47;;;19.70;36.10;;;;;;6804572;26;20299;-61
2024/04/21 05:26:19;;;;;;;2.30;1.57;;;20.60;34.10;;;;;;6847599;26;20229;-61
2024/04/21 05:29:22;;;;;;;1.57;1.43;;;21.40;32.20;;;;;;6847303;26;20234;-58
2024/04/21 05:32:29;;;;;;;3.87;1.30;;;22.10;30.00;;;;;;6847338;26;20670;-56
2024/04/21 05:35:32;;;;;;;1.70;1.30;;;22.70;28.90;;;;;;6817670;26;20282;-59
2024/04/21 05:38:37;;;;;;;1.70;1.10;;;23.50;27.90;;;;;;6801102;26;20250;-59
2024/04/21 05:41:39;;;;;;;1.40;1.30;;;24.30;26.60;;;;;;6802181;26;20222;-59
2024/04/21 05:44:44;;;;;;;1.50;1.40;;;24.80;25.70;;;;;;6801524;26;20369;-59
2024/04/21 05:47:54;;;;;;;2.00;1.70;;;25.60;24.90;;;;;;6801369;26;20273;-59
2024/04/21 05:51:00;;;;;;;2.57;1.87;;;26.40;23.60;;;;;;6800876;26;20359;-59
2024/04/21 05:54:05;;;;;;;2.10;2.00;;;27.00;22.80;;;;;;6800524;26;20692;-59
2024/04/21 05:57:07;;;;;;;3.73;2.53;;;27.60;22.10;;;;;;6801592;26;20222;-60
2024/04/21 06:00:13;;;;;;;2.37;1.23;;;28.30;21.00;;;;;;6800832;26;20254;-60
2024/04/21 06:03:18;;;;;;;1.73;1.40;;;29.10;20.40;;;;;;6801830;26;20230;-60
2024/04/21 06:06:23;;;;;;;2.33;2.10;;;28.80;19.60;;;;;;6801634;26;20274;-60
2024/04/21 06:09:26;;;;;;;3.00;2.53;;;26.10;21.20;;;;;;6800429;26;20296;-60
2024/04/21 06:12:31;;;;;;;2.00;1.80;;;26.10;22.30;;;;;;6802618;26;20230;-58
2024/04/21 06:15:33;;;;;;;1.93;1.40;;;25.10;23.60;;;;;;6801400;26;20269;-61
2024/04/21 06:18:41;;;;;;;1.57;1.47;;;26.80;22.20;;;;;;6801131;26;20234;-62
2024/04/21 06:21:50;;;;;;;3.50;3.20;;;28.60;21.00;;;;;;6803504;26;20269;-60
2024/04/21 06:24:55;;;;;;;2.33;1.83;;;28.60;20.00;;;;;;6805174;26;20269;-60
2024/04/21 06:27:57;;;;;;;2.33;1.77;;;28.10;20.70;;;;;;6805582;26;20230;-60
2024/04/21 06:31:02;;;;;;;1.73;1.50;;;29.00;19.60;;;;;;6805162;26;20718;-60
2024/04/21 06:34:07;;;;;;;1.43;1.33;;;27.50;20.40;;;;;;6804544;26;20780;-60
2024/04/21 06:37:12;;;;;;;1.60;1.50;;;25.70;21.80;;;;;;6804501;26;20930;-60
2024/04/21 06:40:15;;;;;;;2.00;1.80;;;25.00;21.70;;;;;;6804979;26;20242;-60
2024/04/21 06:43:21;;;;;;;3.03;1.60;;;24.40;23.80;;;;;;6804179;26;20283;-61
2024/04/21 06:46:23;;;;;;;1.93;1.60;;;26.70;21.90;;;;;;6804669;26;20261;-61
2024/04/21 06:49:36;;;;;;;1.70;1.20;;;24.90;22.60;;;;;;6804482;26;20237;-59
2024/04/21 06:52:39;;;;;;;1.50;1.30;;;24.40;22.90;;;;;;6804751;26;20329;-59
2024/04/21 06:55:44;;;;;;;1.80;1.70;;;22.40;24.60;;;;;;6803889;26;20227;-59
2024/04/21 06:58:47;;;;;;;2.27;1.60;;;22.50;25.00;;;;;;6803878;26;20231;-60
2024/04/21 07:01:52;;;;;;;2.00;1.43;;;23.80;23.70;;;;;;6804252;26;20688;-61
2024/04/21 07:04:57;;;;;;;1.50;1.40;;;24.60;23.50;;;;;;6804538;26;20252;-60
2024/04/21 07:08:02;;;;;;;2.20;1.70;;;23.90;23.80;;;;;;6804001;26;20647;-59
2024/04/21 07:11:07;;;;;;;4.50;1.77;;;23.10;24.80;;;;;;6804003;26;20226;-60
2024/04/21 07:14:09;;;;;;;2.10;1.90;;;24.30;23.40;;;;;;6803975;26;20222;-59
2024/04/21 07:17:24;;;;;;;1.47;1.37;;;25.10;22.30;;;;;;6804065;26;20268;-59
2024/04/21 07:20:29;;;;;;;1.40;1.30;;;23.60;24.10;;;;;;6804070;26;20656;-59
2024/04/21 07:23:35;;;;;;;1.50;1.40;;;23.90;23.80;;;;;;6803627;26;20699;-60
2024/04/21 07:26:39;;;;;;;1.00;0.90;;;26.40;21.50;;;;;;6803304;26;20531;-59
2024/04/21 07:29:42;;;;;;;1.60;1.40;;;24.80;22.20;;;;;;6803759;26;20411;-60
2024/04/21 07:32:47;;;;;;;1.97;1.10;;;24.70;22.20;;;;;;6802457;26;20631;-61
2024/04/21 07:35:52;;;;;;;1.90;1.60;;;27.70;20.50;;;;;;6803256;26;20234;-60
2024/04/21 07:38:57;;;;;;;1.33;1.00;;;29.80;18.80;;;;;;6803352;26;20759;-60
2024/04/21 07:42:00;;;;;;;1.60;1.45;;;32.10;17.30;;;;;;6804166;26;20327;-60
2024/04/21 07:45:05;;;;;;;1.20;1.00;;;32.90;15.90;;;;;;6804038;26;20286;-59
2024/04/21 07:48:08;;;;;;;1.50;1.40;;;31.10;16.50;;;;;;6803282;26;20257;-60
2024/04/21 07:51:16;;;;;;;1.50;1.40;;;30.90;17.30;;;;;;6803475;26;20654;-60
2024/04/21 07:54:18;;;;;;;1.20;1.00;;;31.10;17.10;;;;;;6803029;26;20272;-62
2024/04/21 07:57:23;;;;;;;1.92;1.23;;;33.30;15.60;;;;;;6803897;26;20257;-61
2024/04/21 08:00:26;;;;;;;2.42;1.90;;;34.00;15.50;;;;;;6823700;26;20277;-60
2024/04/21 08:03:31;;;;;;;1.55;1.10;;;31.80;15.40;;;;;;6836100;26;20237;-60
2024/04/21 08:06:37;;;;;;;1.40;1.30;;;30.00;17.00;;;;;;6830525;26;20744;-61
2024/04/21 08:09:42;;;;;;;1.73;1.40;;;32.90;15.10;;;;;;6795068;26;20294;-61
2024/04/21 08:12:48;;;;;;;1.10;1.00;;;32.60;15.30;;;;;;6757902;26;20224;-60
2024/04/21 08:15:51;;;;;;;1.13;0.82;;;32.80;14.60;;;;;;6777742;26;21102;-61
2024/04/21 08:18:56;;;;;;;0.90;0.65;;;36.60;12.30;;;;;;6807580;26;20779;-60
2024/04/21 08:22:01;;;;;;;0.80;0.70;;;37.70;10.20;;;;;;6801324;26;20218;-61
2024/04/21 08:25:07;;;;;;;0.70;0.55;;;39.90;8.60;;;;;;6802893;26;20315;-60
2024/04/21 08:28:12;;;;;;;1.40;0.75;;;38.20;8.40;;;;;;6803043;26;20222;-61
2024/04/21 08:31:17;;;;;;;1.45;0.80;;;35.60;9.30;;;;;;6802399;26;20989;-60
2024/04/21 08:34:21;;;;;;;1.88;1.15;;;33.40;10.60;;;;;;6804999;26;20230;-61
2024/04/21 08:37:29;;;;;;;1.08;0.70;;;34.20;10.80;;;;;;6802076;26;20239;-61
2024/04/21 08:40:40;;;;;;;1.13;0.52;;;38.00;9.60;;;;;;6797173;26;20659;-60
2024/04/21 08:43:43;;;;;;;1.70;0.70;;;39.70;7.50;;;;;;6801495;26;20239;-61
2024/04/21 08:46:50;;;;;;;0.95;0.65;;;37.20;7.60;;;;;;6802050;26;20870;-60
2024/04/21 08:49:58;;;;;;;1.10;0.70;;;34.90;8.70;;;;;;6796064;26;20613;-60
2024/04/21 08:53:06;;;;;;;1.98;1.05;;;33.30;9.70;;;;;;6796760;26;20813;-59
2024/04/21 08:56:16;;;;;;;1.13;0.98;;;32.30;10.00;;;;;;6798737;26;20334;-59
2024/04/21 08:59:25;;;;;;;2.55;1.08;;;31.50;10.50;;;;;;6800879;26;20660;-60
2024/04/21 09:02:29;;;;;;;1.70;0.90;;;30.00;10.60;;;;;;6802016;26;20222;-59
2024/04/21 09:05:35;;;;;;;1.73;0.70;;;28.50;12.00;;;;;;6801862;26;20222;-60
2024/04/21 09:08:42;;;;;;;0.93;0.60;;;27.20;12.90;;;;;;6800041;26;20238;-59
2024/04/21 09:11:45;;;;;;;3.47;0.63;;;26.90;13.80;;;;;;6801099;26;20735;-60
2024/04/21 09:14:50;;;;;;;0.70;0.50;;;26.90;13.10;;;;;;6801097;26;20363;-59
2024/04/21 09:17:52;;;;;;;1.47;0.70;;;26.20;13.70;;;;;;6800620;26;20877;-60
2024/04/21 09:20:59;;;;;;;0.80;0.50;;;28.60;12.70;;;;;;6801109;26;20285;-60
2024/04/21 09:24:07;;;;;;;0.90;0.50;;;29.10;12.20;;;;;;6801658;26;20848;-60
2024/04/21 09:27:10;;;;;;;1.07;0.50;;;29.20;11.90;;;;;;6801555;26;20739;-61
2024/04/21 09:30:15;;;;;;;0.90;0.60;;;28.70;12.10;;;;;;6801499;26;20404;-59
2024/04/21 09:33:17;;;;;;;1.13;0.60;;;27.70;12.90;;;;;;6801421;26;20666;-60
2024/04/21 09:36:22;;;;;;;1.07;0.60;;;27.20;13.00;;;;;;6801541;26;20226;-60
2024/04/21 09:39:31;;;;;;;1.00;0.70;;;27.60;13.60;;;;;;6801896;26;20620;-59
2024/04/21 09:42:33;;;;;;;0.80;0.50;;;32.50;12.20;;;;;;6802347;26;20261;-60
2024/04/21 09:45:38;;;;;;;1.20;0.80;;;34.00;10.30;;;;;;6802407;26;20262;-60
2024/04/21 09:48:45;;;;;;;1.10;0.60;;;33.50;10.20;;;;;;6801965;26;20346;-60
2024/04/21 09:51:49;;;;;;;1.27;0.68;;;33.30;10.00;;;;;;6801699;26;20319;-61
2024/04/21 09:54:56;;;;;;;0.80;0.50;;;32.90;10.20;;;;;;6800575;26;20230;-61
2024/04/21 09:58:01;;;;;;;1.15;0.57;;;32.70;10.40;;;;;;6801512;26;20277;-62
2024/04/21 10:01:09;;;;;;;2.28;1.08;;;32.80;10.50;;;;;;6818794;26;20238;-62
2024/04/21 10:04:20;;;;;;;1.02;0.60;;;34.70;10.60;;;;;;6810649;26;20327;-62
2024/04/21 10:07:25;;;;;;;1.40;0.60;;;39.30;8.50;;;;;;6800595;26;20277;-62
2024/04/21 10:10:38;;;;;;;0.70;0.52;;;42.60;6.80;;;;;;6804974;26;20735;-62
2024/04/21 10:13:43;;;;;;;0.98;0.65;;;45.60;6.30;;;;;;6803155;26;20286;-61
2024/04/21 10:16:46;;;;;;;1.20;0.98;;;48.40;4.50;;;;;;6804720;26;20334;-62
2024/04/21 10:20:02;;;;;;;1.42;0.70;;;49.10;3.20;;;;;;6795014;26;20295;-62
2024/04/21 10:23:10;;;;;;;1.20;0.70;;;48.90;3.00;;;;;;6806220;26;20956;-61
2024/04/21 10:26:16;;;;;;;1.08;0.98;;;46.30;3.10;;;;;;6800797;26;20270;-62
2024/04/21 10:29:30;;;;;;;0.90;0.63;;;43.30;4.00;;;;;;6801273;26;20250;-62
2024/04/21 10:32:32;;;;;;;0.90;0.70;;;40.30;5.10;;;;;;6808430;26;20253;-63
2024/04/21 10:35:38;;;;;;;2.55;2.35;;;38.20;5.80;;;;;;6831132;26;20283;-62
2024/04/21 10:38:53;;;;;;;1.80;1.52;;;37.30;6.10;;;;;;6828456;26;20237;-62
2024/04/21 10:42:00;;;;;;;0.98;0.57;;;35.90;6.60;;;;;;6846997;26;20598;-62
2024/04/21 10:45:05;;;;;;;1.33;0.60;;;35.50;7.60;;;;;;6811514;26;20323;-62
2024/04/21 10:48:09;;;;;;;0.90;0.68;;;35.80;7.50;;;;;;6794495;26;20242;-61
2024/04/21 10:51:15;;;;;;;1.67;0.90;;;36.80;7.80;;;;;;6808735;26;20314;-63
2024/04/21 10:54:18;;;;;;;0.93;0.60;;;37.70;6.40;;;;;;6799775;26;20233;-61
2024/04/21 10:57:26;;;;;;;1.15;0.80;;;39.90;6.70;;;;;;6827657;26;20233;-63
2024/04/21 11:00:33;;;;;;;1.00;0.73;;;42.20;5.80;;;;;;6816210;26;20242;-63
2024/04/21 11:03:35;;;;;;;0.80;0.60;;;44.70;4.30;;;;;;6808503;26;20968;-61
2024/04/21 11:06:41;;;;;;;0.70;0.45;;;46.00;4.00;;;;;;6800662;26;20224;-62
2024/04/21 11:09:43;;;;;;;0.80;0.60;;;45.20;3.30;;;;;;6849592;26;20705;-62
2024/04/21 11:12:55;;;;;;;1.15;0.55;;;43.30;2.70;;;;;;6831214;25;20246;-62
2024/04/21 11:16:00;;;;;;;0.80;0.57;;;38.20;4.60;;;;;;6804397;26;20361;-61
2024/04/21 11:19:02;;;;;;;1.17;0.70;;;35.40;6.30;;;;;;6804383;26;20246;-60
2024/04/21 11:22:08;;;;;;;1.10;0.70;;;33.20;7.60;;;;;;6804613;26;20260;-61
2024/04/21 11:25:14;;;;;;;1.30;0.50;;;31.60;8.60;;;;;;6829993;26;20547;-61
2024/04/21 11:28:20;;;;;;;0.95;0.60;;;30.30;8.70;;;;;;6838315;26;20281;-61
2024/04/21 11:31:26;;;;;;;0.80;0.60;;;30.10;9.80;;;;;;6803623;26;20293;-63
2024/04/21 11:34:32;;;;;;;0.82;0.68;;;32.30;9.10;;;;;;6803931;26;20386;-62
2024/04/21 11:37:34;;;;;;;1.08;0.60;;;33.10;8.30;;;;;;6803704;26;20238;-62
2024/04/21 11:40:42;;;;;;;1.00;0.63;;;32.70;8.20;;;;;;6803871;26;20277;-62
2024/04/21 11:43:51;;;;;;;0.90;0.60;;;32.00;8.20;;;;;;6805230;26;20219;-61
2024/04/21 11:46:59;;;;;;;0.90;0.80;;;30.80;8.60;;;;;;6808835;26;20222;-61
2024/04/21 11:50:02;;;;;;;0.95;0.80;;;28.80;10.30;;;;;;6820987;26;20242;-62
2024/04/21 11:53:07;;;;;;;3.77;0.70;;;27.90;10.20;;;;;;6804473;26;20222;-62
2024/04/21 11:56:09;;;;;;;2.20;1.70;;;26.20;11.10;;;;;;6804453;26;20222;-60
2024/04/21 11:59:17;;;;;;;1.37;1.00;;;25.30;11.80;;;;;;6804191;26;20226;-61
2024/04/21 12:02:22;;;;;;;1.53;0.90;;;24.80;12.80;;;;;;6803616;26;20226;-61
2024/04/21 12:05:24;;;;;;;1.10;0.90;;;24.30;13.40;;;;;;6806882;26;20250;-61
2024/04/21 12:08:29;;;;;;;0.90;0.70;;;24.20;13.70;;;;;;6780142;26;20638;-61
2024/04/21 12:11:32;;;;;;;0.80;0.63;;;23.90;13.80;;;;;;6827022;26;20285;-62
2024/04/21 12:14:40;;;;;;;0.80;0.70;;;24.10;13.80;;;;;;6825937;26;20369;-61
2024/04/21 12:17:45;;;;;;;1.30;0.77;;;25.00;14.30;;;;;;6803133;26;20265;-62
2024/04/21 12:20:47;;;;;;;1.10;0.90;;;25.80;13.00;;;;;;6802792;26;20238;-62
2024/04/21 12:23:52;;;;;;;2.83;0.80;;;26.40;13.10;;;;;;6832594;26;20233;-61
2024/04/21 12:26:57;;;;;;;1.03;0.73;;;26.60;12.00;;;;;;6824811;26;20238;-61
2024/04/21 12:30:02;;;;;;;1.10;0.70;;;26.00;11.40;;;;;;6803887;26;20292;-62
2024/04/21 12:33:07;;;;;;;0.90;0.70;;;24.70;13.00;;;;;;6831579;26;20291;-62
2024/04/21 12:36:10;;;;;;;1.07;0.57;;;24.30;13.40;;;;;;6846224;26;20284;-61
2024/04/21 12:39:15;;;;;;;0.70;0.50;;;24.10;14.00;;;;;;6832096;26;20347;-63
2024/04/21 12:42:17;;;;;;;1.03;0.93;;;23.70;14.60;;;;;;6827348;26;20337;-62
2024/04/21 12:45:25;;;;;;;1.20;0.70;;;22.60;14.40;;;;;;6810660;26;20235;-61
2024/04/21 12:48:30;;;;;;;0.70;0.70;;;20.80;15.60;;;;;;6803005;26;21035;-61
2024/04/21 12:51:33;;;;;;;1.90;0.80;;;20.40;16.30;;;;;;6803346;26;20222;-61
2024/04/21 12:54:38;;;;;;;0.77;0.60;;;20.30;16.30;;;;;;6803314;26;21011;-61
2024/04/21 12:57:41;;;;;;;0.80;0.60;;;20.40;16.30;;;;;;6805552;26;20226;-60
2024/04/21 13:00:49;;;;;;;1.37;0.83;;;20.30;16.50;;;;;;6819884;26;20241;-61
2024/04/21 13:03:51;;;;;;;0.70;0.63;;;20.30;16.40;;;;;;6848866;26;20467;-62
2024/04/21 13:06:56;;;;;;;1.07;0.70;;;20.30;16.30;;;;;;6804810;26;20795;-62
2024/04/21 13:09:59;;;;;;;0.90;0.73;;;20.50;16.30;;;;;;6802686;26;20323;-62
2024/04/21 13:13:04;;;;;;;0.97;0.60;;;20.50;15.80;;;;;;6804287;26;20219;-61
2024/04/21 13:16:09;;;;;;;0.70;0.70;;;20.50;15.60;;;;;;6803710;26;20300;-62
2024/04/21 13:19:14;;;;;;;0.80;0.80;;;20.50;15.30;;;;;;6803990;26;20243;-62
2024/04/21 13:22:16;;;;;;;0.83;0.70;;;20.40;15.80;;;;;;6838384;26;20334;-62
2024/04/21 13:25:22;;;;;;;0.70;0.63;;;20.40;16.90;;;;;;6849377;26;20731;-61
2024/04/21 13:28:24;;;;;;;1.00;0.80;;;20.50;15.50;;;;;;6848217;26;20275;-60
2024/04/21 13:31:39;;;;;;;1.10;1.00;;;20.60;15.50;;;;;;6847416;25;20233;-61
2024/04/21 13:34:43;;;;;;;1.10;0.70;;;20.80;15.20;;;;;;6837103;25;20301;-61
2024/04/21 13:37:50;;;;;;;0.80;0.80;;;21.00;15.60;;;;;;6847571;25;20687;-61
2024/04/21 13:41:08;;;;;;;0.90;0.80;;;21.20;15.90;;;;;;6845039;26;20361;-62
2024/04/21 13:44:20;;;;;;;0.63;0.47;;;21.20;15.10;;;;;;6834444;26;20342;-61
2024/04/21 13:47:28;;;;;;;0.80;0.70;;;20.50;14.70;;;;;;6848259;26;20222;-61
2024/04/21 13:50:39;;;;;;;1.30;0.80;;;18.70;16.70;;;;;;6802930;26;20309;-63
2024/04/21 13:53:50;;;;;;;1.30;0.70;;;18.20;17.10;;;;;;6804366;26;20219;-61
2024/04/21 13:56:59;;;;;;;0.60;0.50;;;17.30;17.90;;;;;;6846903;26;20305;-61
2024/04/21 14:00:02;;;;;;;1.20;0.97;;;16.80;18.10;;;;;;6845999;26;20383;-61
2024/04/21 14:03:26;;;;;;;0.90;0.77;;;16.40;19.20;;;;;;6825813;25;20302;-61
2024/04/21 14:06:31;;;;;;;0.70;0.60;;;16.80;19.30;;;;;;6820722;25;20235;-61
2024/04/21 14:09:44;;;;;;;0.73;0.53;;;16.90;19.10;;;;;;6802924;26;20677;-61
2024/04/21 14:12:49;;;;;;;0.70;0.60;;;17.00;19.00;;;;;;6822860;26;20234;-61
2024/04/21 14:16:04;;;;;;;0.63;0.60;;;16.90;19.20;;;;;;6789688;26;20275;-61
2024/04/21 14:19:13;;;;;;;0.90;0.80;;;16.90;18.60;;;;;;6754581;26;20240;-61
2024/04/21 14:22:16;;;;;;;0.93;0.50;;;16.90;18.20;;;;;;6755084;26;20801;-61
2024/04/21 14:25:26;;;;;;;0.93;0.40;;;17.00;18.10;;;;;;6756359;26;20356;-61
2024/04/21 14:28:34;;;;;;;0.90;0.70;;;17.20;18.20;;;;;;6758689;26;20236;-62
2024/04/21 14:31:40;;;;;;;0.63;0.63;;;17.30;18.40;;;;;;6761686;26;20231;-61
2024/04/21 14:34:53;;;;;;;0.90;0.50;;;17.30;17.90;;;;;;6757174;26;20789;-60
2024/04/21 14:38:04;;;;;;;4.17;2.40;;;17.40;18.40;;;;;;6772014;26;20235;-60
2024/04/21 14:41:14;;;;;;;0.97;0.87;;;17.50;18.30;;;;;;6802766;26;20291;-62
2024/04/21 14:44:24;;;;;;;0.50;0.50;;;17.50;18.60;;;;;;6806279;26;20215;-60
2024/04/21 14:47:28;;;;;;;0.80;0.70;;;17.30;17.30;;;;;;6804490;26;20223;-61
2024/04/21 14:50:40;;;;;;;0.60;0.43;;;17.00;18.00;;;;;;6805912;26;20780;-60
2024/04/21 14:53:43;;;;;;;1.13;0.70;;;17.00;18.30;;;;;;6805890;26;20677;-60
2024/04/21 14:57:07;;;;;;;1.10;0.60;;;17.00;18.00;;;;;;6805106;26;20232;-62
2024/04/21 15:00:13;;;;;;;0.80;0.67;;;17.00;18.60;;;;;;6758810;26;20232;-61
2024/04/21 15:03:29;;;;;;;0.50;0.50;;;17.10;18.40;;;;;;6759869;26;20336;-62
2024/04/21 15:06:39;;;;;;;1.00;0.60;;;17.10;19.10;;;;;;6759501;26;20768;-61
2024/04/21 15:09:50;;;;;;;0.77;0.60;;;17.20;18.90;;;;;;6758537;26;21030;-61
2024/04/21 15:12:56;;;;;;;0.70;0.70;;;17.10;18.60;;;;;;6759370;26;20224;-60
2024/04/21 15:16:05;;;;;;;2.07;0.80;;;17.00;18.80;;;;;;6760081;26;20224;-61
2024/04/21 15:19:13;;;;;;;3.00;1.00;;;17.10;19.10;;;;;;6759133;26;20271;-61
2024/04/21 15:22:25;;;;;;;1.17;0.90;;;17.00;19.20;;;;;;6759088;26;20309;-61
2024/04/21 15:25:41;;;;;;;2.67;0.87;;;16.10;21.00;;;;;;6760549;26;20738;-61
2024/04/21 15:28:46;;;;;;;1.53;0.80;;;14.70;22.70;;;;;;6759177;26;20529;-61
2024/04/21 15:31:55;;;;;;;1.67;0.70;;;14.10;24.50;;;;;;6759858;26;20993;-61
2024/04/21 15:35:01;;;;;;;0.60;0.60;;;13.80;25.20;;;;;;6785148;26;20456;-61
2024/04/21 15:38:14;;;;;;;1.10;1.00;;;13.50;26.00;;;;;;6804390;26;20520;-62
2024/04/21 15:41:18;;;;;;;1.00;0.80;;;13.30;26.10;;;;;;6804755;26;20914;-60
2024/04/21 15:44:25;;;;;;;1.00;0.90;;;13.30;26.10;;;;;;6799014;26;20597;-61
2024/04/21 15:47:32;;;;;;;1.00;0.90;;;13.10;27.40;;;;;;6810254;26;20461;-61
2024/04/21 15:50:41;;;;;;;1.20;1.10;;;12.90;27.80;;;;;;6809604;25;20779;-62
2024/04/21 15:53:49;;;;;;;0.93;0.90;;;12.70;27.60;;;;;;6772787;26;20472;-61
2024/04/21 15:56:58;;;;;;;1.20;1.10;;;12.50;28.60;;;;;;6809278;26;21059;-60
2024/04/21 16:00:00;;;;;;;1.00;0.83;;;12.50;29.20;;;;;;6829066;26;20479;-61
2024/04/21 16:03:08;;;;;;;0.57;0.50;;;12.10;29.60;;;;;;6778267;26;20836;-60
2024/04/21 16:06:12;;;;;;;0.77;0.77;;;11.70;28.70;;;;;;6809698;26;20536;-61
2024/04/21 16:09:34;;;;;;;1.00;0.90;;;11.50;29.20;;;;;;6802126;26;20468;-61
2024/04/21 16:12:39;;;;;;;0.80;0.80;;;11.40;29.60;;;;;;6843558;26;20467;-60